createdAt,value
2023-04-23T00:02:26.987Z,26.90
2023-04-23T00:12:53.308Z,23.80
2023-04-23T00:23:19.011Z,28.20
2023-04-23T00:33:45.152Z,25.20
2023-04-23T00:44:12.171Z,24.00
2023-04-23T00:54:38.145Z,29.80
2023-04-23T01:05:05.745Z,25.80
2023-04-23T01:15:31.661Z,28.80
2023-04-23T01:25:57.757Z,22.90
2023-04-23T01:36:24.608Z,26.00
2023-04-23T01:46:50.326Z,19.20
2023-04-23T01:57:16.322Z,18.70
2023-04-23T02:07:43.933Z,16.90
2023-04-23T02:18:10.950Z,24.90
2023-04-23T02:28:37.062Z,19.40
2023-04-23T02:39:11.330Z,18.20
2023-04-23T02:49:37.202Z,19.40
2023-04-23T03:00:06.486Z,18.80
2023-04-23T03:10:32.270Z,21.10
2023-04-23T03:20:58.377Z,19.10
2023-04-23T03:31:24.150Z,21.30
2023-04-23T03:41:50.793Z,16.60
2023-04-23T03:52:16.665Z,20.10
2023-04-23T04:02:43.551Z,19.30
2023-04-23T04:13:10.424Z,19.60
2023-04-23T04:23:37.046Z,22.60
2023-04-23T04:34:03.006Z,21.70
2023-04-23T04:44:28.813Z,25.50
2023-04-23T04:54:54.889Z,25.30
2023-04-23T05:05:21.064Z,29.80
2023-04-23T05:15:48.633Z,29.90
2023-04-23T05:26:14.950Z,29.20
2023-04-23T05:36:41.281Z,29.90
2023-04-23T05:47:07.153Z,26.20
2023-04-23T05:57:32.718Z,27.40
2023-04-23T06:07:59.057Z,25.90
2023-04-23T06:18:24.460Z,23.80
2023-04-23T06:28:49.990Z,23.50
2023-04-23T06:39:15.533Z,20.50
2023-04-23T06:49:42.973Z,18.00
2023-04-23T07:00:11.913Z,19.30
2023-04-23T07:10:37.626Z,17.70
2023-04-23T07:21:03.497Z,16.00
2023-04-23T07:31:29.956Z,11.20
2023-04-23T07:41:56.899Z,10.40
2023-04-23T07:52:23.210Z,8.20
2023-04-23T08:02:52.090Z,8.30
2023-04-23T08:13:17.999Z,6.70
2023-04-23T08:23:43.582Z,6.70
2023-04-23T08:34:09.530Z,6.80
2023-04-23T08:44:36.160Z,8.60
2023-04-23T08:55:05.923Z,13.80
2023-04-23T09:05:32.678Z,6.40
2023-04-23T09:15:58.580Z,5.10
2023-04-23T09:26:24.892Z,10.40
2023-04-23T09:36:52.685Z,6.20
2023-04-23T09:47:19.208Z,4.70
2023-04-23T09:57:45.697Z,5.70
2023-04-23T10:08:13.388Z,6.20
2023-04-23T10:18:40.993Z,6.10
2023-04-23T10:39:57.831Z,5.80
2023-04-23T10:50:26.757Z,5.70
2023-04-23T11:00:53.723Z,6.40
2023-04-23T11:11:19.215Z,6.10
2023-04-23T11:22:04.777Z,6.50
2023-04-23T11:32:31.344Z,6.40
2023-04-23T11:42:57.791Z,8.70
2023-04-23T11:53:25.017Z,7.20
2023-04-23T12:14:18.989Z,4.30
2023-04-23T12:24:53.622Z,5.30
2023-04-23T12:35:19.622Z,3.80
2023-04-23T12:45:46.602Z,3.60
2023-04-23T13:06:37.328Z,5.10
2023-04-23T13:17:03.165Z,4.90
2023-04-23T13:27:31.072Z,6.30
2023-04-23T13:37:56.873Z,7.40
2023-04-23T13:48:23.419Z,4.90
2023-04-23T13:58:49.513Z,5.10
2023-04-23T14:09:15.357Z,5.30
2023-04-23T14:19:41.036Z,4.10
2023-04-23T14:30:16.292Z,4.20
2023-04-23T14:40:42.152Z,4.10
2023-04-23T14:51:08.414Z,4.90
2023-04-23T15:01:34.354Z,3.90
2023-04-23T15:12:00.315Z,5.90
2023-04-23T15:22:26.265Z,5.00
2023-04-23T15:32:52.314Z,6.00
2023-04-23T15:43:20.005Z,6.60
2023-04-23T15:53:45.978Z,7.60
2023-04-23T16:04:12.614Z,5.10
2023-04-23T16:14:40.374Z,5.60
2023-04-23T16:25:08.047Z,6.30
2023-04-23T16:35:33.603Z,4.50
2023-04-23T16:45:59.997Z,7.70
2023-04-23T16:56:26.330Z,7.70
2023-04-23T17:06:52.273Z,8.50
2023-04-23T17:17:17.922Z,9.70
2023-04-23T17:27:43.759Z,7.50
2023-04-23T17:38:09.148Z,11.50
2023-04-23T17:48:35.009Z,10.30
2023-04-23T17:59:01.096Z,6.60
2023-04-23T18:09:27.095Z,6.80
2023-04-23T18:19:53.669Z,7.30
2023-04-23T18:30:23.534Z,10.60
2023-04-23T18:40:49.615Z,7.00
2023-04-23T18:51:26.872Z,9.30
2023-04-23T19:01:53.325Z,11.50
2023-04-23T19:12:19.167Z,8.60
2023-04-23T19:22:45.514Z,11.80
2023-04-23T19:33:11.946Z,10.60
2023-04-23T19:43:37.801Z,10.50
2023-04-23T19:54:04.004Z,10.20
2023-04-23T20:04:29.486Z,8.80
2023-04-23T20:14:55.959Z,9.10
2023-04-23T20:25:25.589Z,13.10
2023-04-23T20:35:51.816Z,15.50
2023-04-23T20:46:18.523Z,15.40
2023-04-23T20:56:44.595Z,13.50
2023-04-23T21:07:10.544Z,15.80
2023-04-23T21:17:36.374Z,15.60
2023-04-23T21:28:02.603Z,11.40
2023-04-23T21:38:28.882Z,13.80
2023-04-23T21:59:38.328Z,12.20
2023-04-23T22:10:05.617Z,12.70
2023-04-23T22:20:31.672Z,14.40
2023-04-23T22:30:57.914Z,13.70
2023-04-23T22:41:23.353Z,12.50
2023-04-23T22:51:49.833Z,12.30
2023-04-23T23:02:15.797Z,14.80
2023-04-23T23:12:41.548Z,14.70
2023-04-23T23:23:07.133Z,12.90
2023-04-23T23:33:33.272Z,14.20
2023-04-23T23:43:58.837Z,13.10
2023-04-23T23:54:24.568Z,12.40
